createdAt,value
2018-03-06T00:01:56.537Z,9.00
2018-03-06T00:04:24.039Z,14.40
2018-03-06T00:06:51.525Z,13.30
2018-03-06T00:09:18.994Z,9.50
2018-03-06T00:11:46.626Z,7.40
2018-03-06T00:14:14.110Z,8.83
2018-03-06T00:16:41.570Z,7.33
2018-03-06T00:19:09.057Z,11.70
2018-03-06T00:21:36.556Z,13.13
2018-03-06T00:24:04.028Z,5.70
2018-03-06T00:26:31.501Z,12.33
2018-03-06T00:28:58.986Z,10.63
2018-03-06T00:31:26.442Z,8.20
2018-03-06T00:33:53.942Z,14.40
2018-03-06T00:36:22.171Z,10.83
2018-03-06T00:38:49.646Z,11.60
2018-03-06T00:41:17.135Z,17.50
2018-03-06T00:43:44.636Z,14.67
2018-03-06T00:46:12.924Z,9.50
2018-03-06T00:48:40.412Z,9.60
2018-03-06T00:51:07.893Z,9.67
2018-03-06T00:53:35.370Z,15.50
2018-03-06T00:56:02.866Z,15.63
2018-03-06T00:58:30.344Z,11.53
2018-03-06T01:00:57.861Z,11.80
2018-03-06T01:03:25.318Z,8.80
2018-03-06T01:05:52.774Z,13.33
2018-03-06T01:08:20.263Z,12.40
2018-03-06T01:10:47.722Z,16.20
2018-03-06T01:13:15.205Z,20.20
2018-03-06T01:15:43.438Z,11.30
2018-03-06T01:18:10.963Z,13.73
2018-03-06T01:20:38.457Z,12.47
2018-03-06T01:23:05.946Z,19.43
2018-03-06T01:25:34.238Z,15.87
2018-03-06T01:28:01.665Z,18.03
2018-03-06T01:30:29.152Z,5.40
2018-03-06T01:32:56.629Z,11.60
2018-03-06T01:35:24.134Z,19.80
2018-03-06T01:37:51.617Z,10.10
2018-03-06T01:40:19.921Z,9.80
2018-03-06T01:42:47.392Z,19.03
2018-03-06T01:45:14.849Z,10.83
2018-03-06T01:47:42.332Z,11.63
2018-03-06T01:50:09.805Z,13.37
2018-03-06T01:52:37.301Z,15.63
2018-03-06T01:55:04.778Z,9.00
2018-03-06T01:57:32.297Z,14.50
2018-03-06T01:59:59.753Z,11.53
2018-03-06T02:02:27.222Z,13.57
2018-03-06T02:04:55.465Z,13.60
2018-03-06T02:07:22.942Z,9.53
2018-03-06T02:09:50.418Z,7.30
2018-03-06T02:12:18.693Z,10.93
2018-03-06T02:14:46.266Z,18.00
2018-03-06T02:17:13.763Z,13.33
2018-03-06T02:19:41.249Z,16.20
2018-03-06T02:22:08.720Z,14.53
2018-03-06T02:24:36.197Z,13.00
2018-03-06T02:27:04.478Z,14.33
2018-03-06T02:29:31.986Z,10.60
2018-03-06T02:31:59.458Z,14.23
2018-03-06T02:34:26.960Z,26.80
2018-03-06T02:36:54.445Z,14.00
2018-03-06T02:39:22.005Z,11.00
2018-03-06T02:41:49.487Z,10.47
2018-03-06T02:44:16.970Z,13.83
2018-03-06T02:46:44.524Z,11.90
2018-03-06T02:49:12.045Z,10.90
2018-03-06T02:51:39.541Z,15.23
2018-03-06T02:54:07.016Z,15.30
2018-03-06T02:56:34.530Z,19.70
2018-03-06T02:59:02.002Z,12.50
2018-03-06T03:01:29.486Z,8.93
2018-03-06T03:03:57.776Z,17.00
2018-03-06T03:06:26.021Z,16.90
2018-03-06T03:08:53.539Z,17.40
2018-03-06T03:11:21.017Z,22.80
2018-03-06T03:13:48.493Z,10.60
2018-03-06T03:16:15.984Z,12.67
2018-03-06T03:18:43.481Z,16.43
2018-03-06T03:21:10.973Z,15.70
2018-03-06T03:23:38.452Z,13.67
2018-03-06T03:26:06.729Z,13.77
2018-03-06T03:28:34.966Z,16.37
2018-03-06T03:31:02.467Z,12.37
2018-03-06T03:33:30.715Z,13.67
2018-03-06T03:35:58.209Z,15.60
2018-03-06T03:38:26.497Z,17.10
2018-03-06T03:40:53.986Z,18.37
2018-03-06T03:43:21.490Z,17.03
2018-03-06T03:45:48.996Z,21.07
2018-03-06T03:48:17.022Z,14.83
2018-03-06T03:50:45.501Z,9.93
2018-03-06T03:53:12.976Z,14.53
2018-03-06T03:55:40.517Z,14.70
2018-03-06T03:58:07.976Z,16.37
2018-03-06T04:00:36.247Z,11.83
2018-03-06T04:03:03.720Z,20.70
2018-03-06T04:05:31.970Z,17.33
2018-03-06T04:07:59.550Z,17.10
2018-03-06T04:10:27.776Z,14.23
2018-03-06T04:12:55.270Z,16.50
2018-03-06T04:15:22.753Z,17.83
2018-03-06T04:17:50.252Z,19.80
2018-03-06T04:20:17.746Z,22.63
2018-03-06T04:22:45.310Z,21.00
2018-03-06T04:25:13.603Z,20.40
2018-03-06T04:27:41.833Z,17.30
2018-03-06T04:30:09.403Z,15.70
2018-03-06T04:32:36.888Z,17.40
2018-03-06T04:35:04.362Z,16.07
2018-03-06T04:37:31.866Z,8.57
2018-03-06T04:39:59.329Z,15.10
2018-03-06T04:42:26.806Z,20.50
2018-03-06T04:44:54.289Z,11.50
2018-03-06T04:47:22.510Z,14.20
2018-03-06T04:49:49.998Z,20.60
2018-03-06T04:52:17.463Z,15.87
2018-03-06T04:54:45.126Z,22.90
2018-03-06T04:57:12.594Z,13.77
2018-03-06T04:59:40.085Z,23.77
2018-03-06T05:02:07.558Z,29.80
2018-03-06T05:04:35.034Z,28.70
2018-03-06T05:07:02.512Z,19.43
2018-03-06T05:09:30.014Z,19.93
2018-03-06T05:11:57.540Z,19.07
2018-03-06T05:14:25.035Z,25.17
2018-03-06T05:16:52.530Z,20.03
2018-03-06T05:19:19.997Z,19.97
2018-03-06T05:21:47.504Z,20.30
2018-03-06T05:24:14.972Z,20.87
2018-03-06T05:26:42.454Z,20.97
2018-03-06T05:29:10.097Z,24.23
2018-03-06T05:31:37.580Z,18.63
2018-03-06T05:34:05.041Z,19.87
2018-03-06T05:36:32.598Z,21.87
2018-03-06T05:39:00.097Z,29.67
2018-03-06T05:41:27.525Z,24.70
2018-03-06T05:43:55.030Z,24.33
2018-03-06T05:46:23.288Z,21.40
2018-03-06T05:48:50.800Z,27.00
2018-03-06T05:51:18.283Z,23.47
2018-03-06T05:53:45.905Z,27.53
2018-03-06T05:56:13.422Z,26.53
2018-03-06T05:58:40.935Z,25.90
2018-03-06T06:01:08.428Z,22.00
2018-03-06T06:03:35.898Z,17.93
2018-03-06T06:06:03.381Z,24.57
2018-03-06T06:08:30.841Z,25.57
2018-03-06T06:10:58.338Z,21.07
2018-03-06T06:13:25.804Z,27.20
2018-03-06T06:15:53.264Z,26.33
2018-03-06T06:18:20.741Z,26.90
2018-03-06T06:20:48.204Z,33.00
2018-03-06T06:23:15.700Z,25.47
2018-03-06T06:25:43.165Z,34.53
2018-03-06T06:28:10.644Z,32.43
2018-03-06T06:30:38.132Z,19.10
2018-03-06T06:33:05.621Z,29.53
2018-03-06T06:35:33.085Z,15.80
2018-03-06T06:38:01.382Z,25.90
2018-03-06T06:40:28.876Z,27.73
2018-03-06T06:42:58.062Z,37.10
2018-03-06T06:45:25.513Z,14.63
2018-03-06T06:47:53.017Z,29.67
2018-03-06T06:50:20.590Z,28.90
2018-03-06T06:52:48.822Z,31.67
2018-03-06T06:55:16.788Z,36.20
2018-03-06T06:57:44.258Z,31.57
2018-03-06T07:00:11.766Z,29.70
2018-03-06T07:02:39.217Z,31.67
2018-03-06T07:05:06.685Z,23.50
2018-03-06T07:07:34.277Z,35.40
2018-03-06T07:10:01.734Z,33.30
2018-03-06T07:12:29.234Z,33.33
2018-03-06T07:14:56.714Z,24.57
2018-03-06T07:17:24.201Z,34.13
2018-03-06T07:19:51.731Z,26.77
2018-03-06T07:22:19.993Z,26.13
2018-03-06T07:24:47.446Z,36.50
2018-03-06T07:27:14.921Z,33.73
2018-03-06T07:29:43.177Z,23.70
2018-03-06T07:32:10.633Z,30.30
2018-03-06T07:34:38.100Z,33.27
2018-03-06T07:37:05.585Z,35.77
2018-03-06T07:39:33.045Z,35.10
2018-03-06T07:42:00.526Z,38.03
2018-03-06T07:44:27.999Z,31.30
2018-03-06T07:46:55.466Z,36.90
2018-03-06T07:49:22.957Z,48.50
2018-03-06T07:51:51.191Z,46.73
2018-03-06T07:54:18.662Z,36.27
2018-03-06T07:56:46.149Z,36.63
2018-03-06T07:59:13.626Z,30.87
2018-03-06T08:01:41.116Z,35.83
2018-03-06T08:04:08.598Z,36.57
2018-03-06T08:06:36.122Z,41.13
2018-03-06T08:09:03.559Z,41.90
2018-03-06T08:11:31.038Z,37.63
2018-03-06T08:13:58.539Z,39.03
2018-03-06T08:16:26.007Z,41.63
2018-03-06T08:18:53.518Z,40.17
2018-03-06T08:21:20.992Z,37.53
2018-03-06T08:23:48.477Z,34.43
2018-03-06T08:26:15.938Z,34.80
2018-03-06T08:28:43.431Z,44.47
2018-03-06T08:31:10.877Z,38.07
2018-03-06T08:33:39.110Z,37.23
2018-03-06T08:36:06.606Z,40.90
2018-03-06T08:38:34.838Z,29.23
2018-03-06T08:41:02.315Z,33.83
2018-03-06T08:43:29.797Z,35.43
2018-03-06T08:45:58.046Z,37.50
2018-03-06T08:48:25.543Z,40.30
2018-03-06T08:50:53.805Z,34.80
2018-03-06T08:53:22.047Z,40.53
2018-03-06T08:55:49.513Z,38.00
2018-03-06T08:58:17.820Z,38.80
2018-03-06T09:00:46.052Z,32.87
2018-03-06T09:05:47.350Z,38.63
2018-03-06T09:08:14.826Z,43.93
2018-03-06T09:10:43.046Z,37.87
2018-03-06T09:13:10.546Z,38.67
2018-03-06T09:15:38.002Z,37.23
2018-03-06T09:18:05.459Z,35.00
2018-03-06T09:20:32.957Z,29.07
2018-03-06T09:23:00.419Z,39.50
2018-03-06T09:25:27.914Z,40.30
2018-03-06T09:27:55.379Z,43.30
2018-03-06T09:30:22.850Z,39.40
2018-03-06T09:32:50.337Z,35.80
2018-03-06T09:35:18.578Z,40.43
2018-03-06T09:37:46.054Z,42.10
2018-03-06T09:40:13.630Z,38.97
2018-03-06T09:42:41.122Z,33.00
2018-03-06T09:45:08.592Z,36.97
2018-03-06T09:47:36.078Z,34.20
2018-03-06T09:50:03.579Z,48.83
2018-03-06T09:52:31.066Z,41.70
2018-03-06T09:54:58.567Z,47.50
2018-03-06T09:57:26.827Z,47.67
2018-03-06T09:59:54.289Z,40.57
2018-03-06T10:02:21.763Z,47.00
2018-03-06T10:04:50.035Z,50.67
2018-03-06T10:07:18.266Z,45.50
2018-03-06T10:09:45.731Z,58.83
2018-03-06T10:12:13.227Z,39.47
2018-03-06T10:14:41.470Z,38.70
2018-03-06T10:17:08.962Z,49.47
2018-03-06T10:19:37.232Z,39.40
2018-03-06T10:22:04.719Z,42.57
2018-03-06T10:24:32.200Z,48.07
2018-03-06T10:26:59.690Z,43.27
2018-03-06T10:29:27.158Z,35.23
2018-03-06T10:31:54.657Z,46.20
2018-03-06T10:34:22.142Z,43.50
2018-03-06T10:36:49.627Z,46.33
2018-03-06T10:39:17.144Z,45.90
2018-03-06T10:41:44.627Z,38.00
2018-03-06T10:44:12.115Z,34.70
2018-03-06T10:46:39.599Z,45.17
2018-03-06T10:49:07.095Z,35.13
2018-03-06T10:51:34.570Z,37.50
2018-03-06T10:54:02.039Z,40.50
2018-03-06T10:56:29.533Z,36.10
2018-03-06T10:58:57.779Z,38.20
2018-03-06T11:01:25.266Z,55.10
2018-03-06T11:03:53.502Z,31.57
2018-03-06T11:06:20.983Z,34.87
2018-03-06T11:08:49.269Z,33.77
2018-03-06T11:11:17.534Z,36.60
2018-03-06T11:13:45.789Z,44.17
2018-03-06T11:16:13.275Z,31.50
2018-03-06T11:18:41.532Z,34.23
2018-03-06T11:21:09.049Z,29.73
2018-03-06T11:23:36.525Z,30.20
2018-03-06T11:26:04.018Z,38.83
2018-03-06T11:28:31.510Z,34.53
2018-03-06T11:30:58.994Z,36.00
2018-03-06T11:33:26.529Z,43.87
2018-03-06T11:35:54.010Z,44.20
2018-03-06T11:38:21.489Z,38.50
2018-03-06T11:40:48.954Z,41.80
2018-03-06T11:43:16.442Z,38.90
2018-03-06T11:45:43.915Z,30.53
2018-03-06T11:48:11.389Z,31.67
2018-03-06T11:50:38.883Z,32.23
2018-03-06T11:53:06.375Z,22.30
2018-03-06T11:55:34.638Z,40.13
2018-03-06T11:58:02.874Z,38.33
2018-03-06T12:00:30.334Z,27.47
2018-03-06T12:02:57.842Z,34.73
2018-03-06T12:05:26.069Z,31.03
2018-03-06T12:07:53.525Z,30.90
2018-03-06T12:10:21.017Z,39.03
2018-03-06T12:12:48.477Z,27.20
2018-03-06T12:15:15.967Z,31.83
2018-03-06T12:17:43.433Z,28.10
2018-03-06T12:20:10.895Z,21.03
2018-03-06T12:22:38.394Z,33.23
2018-03-06T12:25:05.859Z,23.80
2018-03-06T12:27:33.399Z,28.23
2018-03-06T12:30:01.932Z,31.03
2018-03-06T12:32:30.194Z,26.97
2018-03-06T12:34:57.684Z,30.67
2018-03-06T12:37:25.197Z,21.33
2018-03-06T12:39:52.694Z,25.90
2018-03-06T12:42:20.178Z,25.63
2018-03-06T12:44:47.687Z,27.40
2018-03-06T12:47:15.153Z,27.30
2018-03-06T12:49:43.423Z,33.40
2018-03-06T12:52:10.894Z,23.90
2018-03-06T12:54:39.193Z,27.33
2018-03-06T12:57:07.418Z,45.73
2018-03-06T12:59:34.940Z,28.47
2018-03-06T13:02:02.411Z,29.47
2018-03-06T13:04:29.910Z,24.90
2018-03-06T13:06:57.370Z,25.83
2018-03-06T13:09:24.886Z,28.30
2018-03-06T13:11:52.364Z,24.23
2018-03-06T13:14:19.844Z,28.30
2018-03-06T13:16:47.353Z,26.10
2018-03-06T13:19:14.843Z,22.30
2018-03-06T13:21:42.330Z,22.33
2018-03-06T13:24:09.824Z,21.23
2018-03-06T13:26:37.385Z,21.03
2018-03-06T13:29:04.874Z,22.07
2018-03-06T13:31:32.372Z,20.53
2018-03-06T13:33:59.906Z,22.40
2018-03-06T13:36:28.995Z,25.90
2018-03-06T13:38:56.493Z,19.13
2018-03-06T13:41:24.757Z,17.50
2018-03-06T13:43:53.002Z,16.13
2018-03-06T13:46:20.490Z,11.33
2018-03-06T13:48:48.758Z,16.37
2018-03-06T13:51:16.271Z,11.97
2018-03-06T13:53:43.755Z,22.90
2018-03-06T13:56:11.238Z,12.30
2018-03-06T13:58:38.739Z,14.47
2018-03-06T14:01:06.225Z,11.60
2018-03-06T14:03:33.706Z,12.87
2018-03-06T14:06:01.178Z,13.63
2018-03-06T14:08:29.450Z,13.10
2018-03-06T14:10:56.926Z,17.33
2018-03-06T14:13:25.202Z,13.37
2018-03-06T14:15:53.433Z,15.40
2018-03-06T14:18:20.919Z,14.83
2018-03-06T14:20:48.387Z,18.10
2018-03-06T14:23:16.655Z,17.67
2018-03-06T14:25:44.138Z,16.50
2018-03-06T14:28:11.628Z,22.47
2018-03-06T14:30:39.101Z,13.00
2018-03-06T14:33:06.586Z,15.33
2018-03-06T14:35:34.085Z,20.33
2018-03-06T14:38:01.638Z,16.60
2018-03-06T14:40:29.099Z,15.30
2018-03-06T14:42:56.594Z,20.80
2018-03-06T14:45:24.089Z,25.13
2018-03-06T14:47:51.566Z,23.50
2018-03-06T14:50:19.116Z,25.57
2018-03-06T14:52:47.375Z,19.97
2018-03-06T14:55:14.833Z,22.83
2018-03-06T14:57:42.321Z,21.73
2018-03-06T15:00:09.790Z,21.30
2018-03-06T15:02:37.297Z,19.07
2018-03-06T15:05:04.782Z,18.00
2018-03-06T15:07:32.237Z,21.97
2018-03-06T15:09:59.748Z,23.80
2018-03-06T15:12:27.259Z,19.40
2018-03-06T15:14:55.504Z,18.60
2018-03-06T15:17:22.974Z,28.93
2018-03-06T15:19:50.485Z,18.07
2018-03-06T15:22:17.973Z,19.80
2018-03-06T15:24:45.461Z,22.90
2018-03-06T15:27:12.952Z,23.03
2018-03-06T15:29:40.419Z,22.93
2018-03-06T15:32:07.916Z,25.50
2018-03-06T15:34:35.417Z,20.03
2018-03-06T15:37:02.934Z,19.67
2018-03-06T15:39:30.474Z,23.00
2018-03-06T15:41:58.715Z,25.13
2018-03-06T15:44:26.195Z,25.77
2018-03-06T15:46:53.670Z,30.20
2018-03-06T15:49:21.209Z,18.90
2018-03-06T15:51:48.676Z,21.43
2018-03-06T15:54:16.162Z,26.23
2018-03-06T15:56:43.626Z,26.57
2018-03-06T15:59:11.122Z,23.83
2018-03-06T16:01:38.603Z,28.20
2018-03-06T16:04:06.114Z,17.30
2018-03-06T16:06:33.607Z,22.00
2018-03-06T16:09:01.102Z,19.63
2018-03-06T16:11:28.581Z,18.10
2018-03-06T16:13:56.071Z,16.63
2018-03-06T16:16:23.561Z,15.10
2018-03-06T16:18:51.034Z,18.80
2018-03-06T16:21:18.518Z,23.20
2018-03-06T16:23:45.982Z,13.70
2018-03-06T16:26:13.474Z,21.30
2018-03-06T16:28:40.952Z,20.00
2018-03-06T16:31:08.432Z,17.47
2018-03-06T16:33:35.921Z,22.17
2018-03-06T16:36:03.381Z,28.13
2018-03-06T16:38:30.863Z,17.93
2018-03-06T16:40:58.360Z,15.50
2018-03-06T16:43:25.846Z,20.20
2018-03-06T16:45:53.326Z,23.47
2018-03-06T16:48:21.606Z,25.63
2018-03-06T16:50:49.859Z,21.30
2018-03-06T16:53:17.323Z,27.90
2018-03-06T16:55:44.798Z,22.07
2018-03-06T16:58:13.030Z,23.47
2018-03-06T17:00:40.510Z,19.50
2018-03-06T17:03:07.969Z,23.30
2018-03-06T17:05:35.638Z,25.00
2018-03-06T17:08:03.554Z,24.50
2018-03-06T17:10:31.236Z,23.00
2018-03-06T17:12:58.837Z,22.07
2018-03-06T17:15:26.366Z,23.73
2018-03-06T17:17:53.886Z,21.67
2018-03-06T17:20:21.571Z,28.93
2018-03-06T17:22:49.203Z,31.33
2018-03-06T17:25:16.883Z,18.80
2018-03-06T17:27:44.332Z,22.30
2018-03-06T17:30:11.791Z,23.10
2018-03-06T17:32:39.288Z,39.50
2018-03-06T17:35:06.818Z,24.83
2018-03-06T17:37:34.302Z,34.33
2018-03-06T17:40:01.941Z,31.23
2018-03-06T17:42:29.477Z,26.30
2018-03-06T17:44:57.016Z,28.93
2018-03-06T17:47:24.512Z,32.03
2018-03-06T17:49:52.134Z,24.00
2018-03-06T17:52:19.708Z,25.00
2018-03-06T17:54:47.498Z,29.40
2018-03-06T17:57:15.165Z,26.20
2018-03-06T17:59:42.700Z,29.27
2018-03-06T18:02:10.165Z,31.37
2018-03-06T18:04:37.793Z,31.83
2018-03-06T18:07:05.479Z,30.10
2018-03-06T18:09:33.155Z,27.40
2018-03-06T18:12:00.654Z,28.67
2018-03-06T18:14:28.365Z,25.30
2018-03-06T18:16:56.186Z,31.80
2018-03-06T18:19:24.585Z,29.87
2018-03-06T18:21:52.196Z,27.30
2018-03-06T18:24:20.648Z,27.80
2018-03-06T18:26:48.467Z,30.50
2018-03-06T18:29:16.004Z,34.30
2018-03-06T18:31:43.577Z,25.50
2018-03-06T18:34:11.079Z,28.50
2018-03-06T18:36:38.691Z,27.77
2018-03-06T18:39:06.357Z,27.30
2018-03-06T18:41:33.849Z,27.07
2018-03-06T18:44:01.428Z,33.13
2018-03-06T18:46:29.729Z,39.23
2018-03-06T18:48:57.232Z,33.00
2018-03-06T18:51:24.771Z,36.67
2018-03-06T18:53:52.260Z,43.60
2018-03-06T18:56:19.737Z,32.87
2018-03-06T18:58:47.981Z,32.80
2018-03-06T19:04:27.694Z,42.73
2018-03-06T19:07:13.716Z,29.77
2018-03-06T19:09:41.202Z,34.53
2018-03-06T19:12:08.661Z,27.13
2018-03-06T19:14:36.125Z,24.33
2018-03-06T19:17:03.622Z,27.70
2018-03-06T19:19:31.932Z,35.00
2018-03-06T19:21:59.417Z,30.40
2018-03-06T19:24:26.925Z,32.70
2018-03-06T19:26:54.405Z,27.57
2018-03-06T19:29:22.151Z,29.43
2018-03-06T19:31:49.760Z,26.20
2018-03-06T19:34:17.218Z,28.67
2018-03-06T19:36:44.944Z,26.77
2018-03-06T19:39:12.426Z,29.67
2018-03-06T19:41:39.926Z,51.27
2018-03-06T19:44:07.456Z,39.00
2018-03-06T19:46:34.971Z,37.73
2018-03-06T19:49:03.103Z,35.27
2018-03-06T19:51:30.629Z,41.37
2018-03-06T19:53:58.110Z,43.93
2018-03-06T19:56:25.774Z,32.83
2018-03-06T19:58:53.373Z,37.03
2018-03-06T20:01:21.638Z,37.33
2018-03-06T20:03:49.915Z,36.87
2018-03-06T20:06:18.192Z,35.77
2018-03-06T20:08:45.665Z,32.40
2018-03-06T20:11:13.918Z,36.93
2018-03-06T20:13:41.579Z,34.57
2018-03-06T20:16:09.062Z,33.57
2018-03-06T20:18:37.394Z,37.87
2018-03-06T20:21:05.068Z,38.47
2018-03-06T20:23:32.592Z,56.30
2018-03-06T20:26:00.170Z,44.10
2018-03-06T20:28:27.692Z,37.63
2018-03-06T20:31:00.762Z,45.73
2018-03-06T20:33:28.291Z,34.40
2018-03-06T20:35:55.852Z,40.37
2018-03-06T20:38:28.927Z,37.33
2018-03-06T20:40:56.441Z,40.83
2018-03-06T20:43:24.800Z,42.00
2018-03-06T20:45:58.634Z,40.00
2018-03-06T20:48:26.903Z,41.33
2018-03-06T20:50:54.458Z,46.47
2018-03-06T20:53:28.353Z,49.70
2018-03-06T20:55:56.163Z,48.87
2018-03-06T20:58:23.697Z,58.40
2018-03-06T21:00:51.194Z,51.40
2018-03-06T21:03:18.657Z,42.73
2018-03-06T21:05:46.165Z,44.67
2018-03-06T21:08:14.747Z,44.77
2018-03-06T21:10:42.248Z,36.67
2018-03-06T21:13:09.776Z,37.40
2018-03-06T21:15:37.349Z,38.77
2018-03-06T21:18:05.650Z,40.37
2018-03-06T21:20:33.125Z,34.77
2018-03-06T21:23:00.613Z,40.70
2018-03-06T21:25:28.070Z,42.13
2018-03-06T21:27:55.547Z,44.03
2018-03-06T21:30:22.996Z,37.87
2018-03-06T21:32:50.534Z,48.10
2018-03-06T21:35:18.014Z,41.27
2018-03-06T21:37:45.492Z,40.80
2018-03-06T21:40:13.758Z,33.03
2018-03-06T21:42:41.250Z,43.93
2018-03-06T21:45:08.754Z,44.23
2018-03-06T21:47:36.211Z,37.13
2018-03-06T21:50:03.666Z,38.57
2018-03-06T21:52:31.145Z,51.07
2018-03-06T21:54:59.382Z,45.73
2018-03-06T21:57:26.857Z,50.47
2018-03-06T21:59:54.347Z,48.57
2018-03-06T22:02:22.599Z,45.23
2018-03-06T22:04:50.066Z,47.70
2018-03-06T22:07:17.527Z,50.93
2018-03-06T22:09:45.009Z,56.73
2018-03-06T22:12:12.494Z,51.47
2018-03-06T22:14:39.977Z,54.80
2018-03-06T22:17:07.437Z,47.90
2018-03-06T22:19:34.915Z,50.67
2018-03-06T22:22:02.456Z,61.97
2018-03-06T22:24:29.909Z,74.30
2018-03-06T22:26:57.402Z,53.27
2018-03-06T22:29:25.726Z,46.70
2018-03-06T22:31:53.190Z,49.93
2018-03-06T22:34:20.657Z,58.20
2018-03-06T22:36:48.118Z,60.90
2018-03-06T22:39:15.596Z,49.73
2018-03-06T22:41:43.053Z,56.53
2018-03-06T22:44:10.544Z,59.30
2018-03-06T22:46:38.034Z,54.17
2018-03-06T22:49:05.498Z,59.00
2018-03-06T22:51:32.981Z,55.57
2018-03-06T22:54:00.517Z,48.00
2018-03-06T22:56:27.986Z,52.30
2018-03-06T22:58:55.466Z,54.87
2018-03-06T23:01:22.934Z,49.17
2018-03-06T23:03:50.420Z,47.40
2018-03-06T23:06:17.889Z,42.33
2018-03-06T23:08:45.378Z,46.67
2018-03-06T23:11:12.850Z,47.93
2018-03-06T23:13:40.342Z,38.73
2018-03-06T23:16:08.558Z,44.17
2018-03-06T23:18:36.021Z,39.07
2018-03-06T23:21:04.325Z,44.87
2018-03-06T23:23:31.789Z,43.23
2018-03-06T23:25:59.290Z,46.57
2018-03-06T23:28:26.782Z,44.43
2018-03-06T23:30:54.254Z,44.70
2018-03-06T23:33:21.770Z,55.43
2018-03-06T23:35:49.237Z,40.83
2018-03-06T23:38:17.357Z,42.83
2018-03-06T23:40:44.849Z,40.33
2018-03-06T23:43:12.340Z,46.73
2018-03-06T23:45:39.821Z,45.10
2018-03-06T23:48:07.310Z,47.83
2018-03-06T23:50:35.543Z,43.63
2018-03-06T23:53:03.038Z,45.30
2018-03-06T23:55:30.501Z,52.50
2018-03-06T23:57:58.728Z,43.10
